Fairlea, West Virginia
Current Conditions -  °F | °C
As of 10:15 AM on Thursday 23 Oct 2014 (Local Time) from KLWB Reporting Station
Overcast Overcast  
Wind Chill: 45°   Ceiling: 2200
Heat Index: 47°   Visibility: 10mi
Dew Point: 38°   Wind: 5mph
Humidity: 69%   Direction: 330°NNW
Pressure: 30.15"   Gusts: NA
Location:  37.78°N, 80.46°W
Report Text: KLWB 231415Z AUTO 33004KT 10SM OVC022 09/03 A3015 RMK AO2 T00850031
Loading
Personal Weather Stations






























Interactive Weather Map
Tropical Storm Tracking
New forecast layout! Learn more

10-Day Weather Forecast

Advertisements
Track Severe Weather on mobile